sensor_id;sensor_type;location;lat;lon;timestamp;temperature;humidity
22838;DHT22;11585;51.450;-0.240;2022-11-15T00:01:27;14.00;99.90
22838;DHT22;11585;51.450;-0.240;2022-11-15T00:03:58;14.00;99.90
22838;DHT22;11585;51.450;-0.240;2022-11-15T00:06:24;14.00;99.90
22838;DHT22;11585;51.450;-0.240;2022-11-15T00:08:49;14.10;99.90
22838;DHT22;11585;51.450;-0.240;2022-11-15T00:14:39;14.00;99.90
22838;DHT22;11585;51.450;-0.240;2022-11-15T00:17:05;13.90;99.90
22838;DHT22;11585;51.450;-0.240;2022-11-15T00:19:41;13.90;99.90
22838;DHT22;11585;51.450;-0.240;2022-11-15T00:22:10;13.90;99.90
22838;DHT22;11585;51.450;-0.240;2022-11-15T00:24:41;14.70;99.90
22838;DHT22;11585;51.450;-0.240;2022-11-15T00:27:08;13.90;99.90
22838;DHT22;11585;51.450;-0.240;2022-11-15T00:29:52;13.90;99.90
22838;DHT22;11585;51.450;-0.240;2022-11-15T00:32:18;13.90;99.90
22838;DHT22;11585;51.450;-0.240;2022-11-15T00:34:44;13.90;99.90
22838;DHT22;11585;51.450;-0.240;2022-11-15T00:37:13;13.80;99.90
22838;DHT22;11585;51.450;-0.240;2022-11-15T00:43:03;13.80;99.90
22838;DHT22;11585;51.450;-0.240;2022-11-15T00:45:31;13.80;99.90
22838;DHT22;11585;51.450;-0.240;2022-11-15T00:47:57;13.80;99.90
22838;DHT22;11585;51.450;-0.240;2022-11-15T00:53:44;13.70;99.90
22838;DHT22;11585;51.450;-0.240;2022-11-15T00:56:31;13.70;99.90
22838;DHT22;11585;51.450;-0.240;2022-11-15T00:58:59;13.70;99.90
22838;DHT22;11585;51.450;-0.240;2022-11-15T01:04:32;13.70;99.90
22838;DHT22;11585;51.450;-0.240;2022-11-15T01:07:01;13.70;99.90
22838;DHT22;11585;51.450;-0.240;2022-11-15T01:09:29;13.70;99.90
22838;DHT22;11585;51.450;-0.240;2022-11-15T01:11:55;13.60;99.90
22838;DHT22;11585;51.450;-0.240;2022-11-15T01:14:20;12.50;99.90
22838;DHT22;11585;51.450;-0.240;2022-11-15T01:16:46;13.60;99.90
22838;DHT22;11585;51.450;-0.240;2022-11-15T01:19:12;13.60;99.90
22838;DHT22;11585;51.450;-0.240;2022-11-15T01:21:37;13.60;99.90
22838;DHT22;11585;51.450;-0.240;2022-11-15T01:24:03;13.60;99.90
22838;DHT22;11585;51.450;-0.240;2022-11-15T01:26:29;13.60;99.90
22838;DHT22;11585;51.450;-0.240;2022-11-15T01:28:54;13.60;99.90
22838;DHT22;11585;51.450;-0.240;2022-11-15T01:31:21;13.60;99.90
22838;DHT22;11585;51.450;-0.240;2022-11-15T01:33:49;13.60;99.90
22838;DHT22;11585;51.450;-0.240;2022-11-15T01:36:22;13.60;99.90
22838;DHT22;11585;51.450;-0.240;2022-11-15T01:38:53;13.50;99.90
22838;DHT22;11585;51.450;-0.240;2022-11-15T01:41:33;13.50;99.90
22838;DHT22;11585;51.450;-0.240;2022-11-15T01:46:59;13.50;99.90
22838;DHT22;11585;51.450;-0.240;2022-11-15T01:52:48;13.50;99.90
22838;DHT22;11585;51.450;-0.240;2022-11-15T01:55:20;13.50;99.90
22838;DHT22;11585;51.450;-0.240;2022-11-15T01:57:53;13.50;99.90
22838;DHT22;11585;51.450;-0.240;2022-11-15T02:00:41;13.50;99.90
22838;DHT22;11585;51.450;-0.240;2022-11-15T02:03:06;13.50;99.90
22838;DHT22;11585;51.450;-0.240;2022-11-15T02:05:32;13.40;99.90
22838;DHT22;11585;51.450;-0.240;2022-11-15T02:08:01;13.50;99.90
22838;DHT22;11585;51.450;-0.240;2022-11-15T02:10:29;13.40;99.90
22838;DHT22;11585;51.450;-0.240;2022-11-15T02:13:03;13.50;99.90
22838;DHT22;11585;51.450;-0.240;2022-11-15T02:15:35;12.40;99.90
22838;DHT22;11585;51.450;-0.240;2022-11-15T02:21:02;13.40;99.90
22838;DHT22;11585;51.450;-0.240;2022-11-15T02:29:39;13.40;99.90
22838;DHT22;11585;51.450;-0.240;2022-11-15T02:32:15;13.40;99.90
22838;DHT22;11585;51.450;-0.240;2022-11-15T02:38:00;13.40;99.90
22838;DHT22;11585;51.450;-0.240;2022-11-15T02:43:29;13.40;99.90
22838;DHT22;11585;51.450;-0.240;2022-11-15T02:49:21;13.30;99.90
22838;DHT22;11585;51.450;-0.240;2022-11-15T02:51:48;13.40;99.90
22838;DHT22;11585;51.450;-0.240;2022-11-15T02:54:28;13.40;99.90
22838;DHT22;11585;51.450;-0.240;2022-11-15T02:57:07;13.40;99.90
22838;DHT22;11585;51.450;-0.240;2022-11-15T03:14:00;13.30;99.90
22838;DHT22;11585;51.450;-0.240;2022-11-15T03:16:30;13.30;99.90
22838;DHT22;11585;51.450;-0.240;2022-11-15T03:25:00;13.30;99.90
22838;DHT22;11585;51.450;-0.240;2022-11-15T03:27:33;13.30;99.90
22838;DHT22;11585;51.450;-0.240;2022-11-15T03:30:24;13.30;99.90
22838;DHT22;11585;51.450;-0.240;2022-11-15T03:32:54;13.30;99.90
22838;DHT22;11585;51.450;-0.240;2022-11-15T03:35:25;13.30;99.90
22838;DHT22;11585;51.450;-0.240;2022-11-15T03:40:54;13.20;99.90
22838;DHT22;11585;51.450;-0.240;2022-11-15T03:49:18;13.20;99.90
22838;DHT22;11585;51.450;-0.240;2022-11-15T03:51:45;13.30;99.90
22838;DHT22;11585;51.450;-0.240;2022-11-15T03:54:12;13.20;99.90
22838;DHT22;11585;51.450;-0.240;2022-11-15T03:56:38;13.20;99.90
22838;DHT22;11585;51.450;-0.240;2022-11-15T03:59:03;13.20;99.90
22838;DHT22;11585;51.450;-0.240;2022-11-15T04:04:51;13.20;99.90
22838;DHT22;11585;51.450;-0.240;2022-11-15T04:07:17;13.30;99.90
22838;DHT22;11585;51.450;-0.240;2022-11-15T04:13:04;13.20;99.90
22838;DHT22;11585;51.450;-0.240;2022-11-15T04:15:33;13.20;99.90
22838;DHT22;11585;51.450;-0.240;2022-11-15T04:17:59;13.20;99.90
22838;DHT22;11585;51.450;-0.240;2022-11-15T04:23:49;13.10;99.90
22838;DHT22;11585;51.450;-0.240;2022-11-15T04:26:30;13.20;99.90
22838;DHT22;11585;51.450;-0.240;2022-11-15T04:28:56;13.20;99.90
22838;DHT22;11585;51.450;-0.240;2022-11-15T04:31:45;13.20;99.90
22838;DHT22;11585;51.450;-0.240;2022-11-15T04:34:18;13.30;99.90
22838;DHT22;11585;51.450;-0.240;2022-11-15T04:36:46;13.20;99.90
22838;DHT22;11585;51.450;-0.240;2022-11-15T04:39:32;13.20;99.90
22838;DHT22;11585;51.450;-0.240;2022-11-15T04:41:58;13.20;99.90
22838;DHT22;11585;51.450;-0.240;2022-11-15T04:44:23;13.30;99.90
22838;DHT22;11585;51.450;-0.240;2022-11-15T04:46:52;13.20;99.90
22838;DHT22;11585;51.450;-0.240;2022-11-15T04:49:18;13.30;99.90
22838;DHT22;11585;51.450;-0.240;2022-11-15T04:51:46;13.30;99.90
22838;DHT22;11585;51.450;-0.240;2022-11-15T04:54:12;13.30;99.90
22838;DHT22;11585;51.450;-0.240;2022-11-15T04:56:38;13.30;99.90
22838;DHT22;11585;51.450;-0.240;2022-11-15T04:59:03;13.30;99.90
22838;DHT22;11585;51.450;-0.240;2022-11-15T05:08:15;13.40;99.90
22838;DHT22;11585;51.450;-0.240;2022-11-15T05:14:04;13.40;99.90
22838;DHT22;11585;51.450;-0.240;2022-11-15T05:16:30;13.50;99.90
22838;DHT22;11585;51.450;-0.240;2022-11-15T05:19:04;13.40;99.90
22838;DHT22;11585;51.450;-0.240;2022-11-15T05:34:45;13.50;99.90
22838;DHT22;11585;51.450;-0.240;2022-11-15T05:37:15;13.50;99.90
22838;DHT22;11585;51.450;-0.240;2022-11-15T05:46:28;13.50;99.90
22838;DHT22;11585;51.450;-0.240;2022-11-15T05:48:55;13.50;99.90
22838;DHT22;11585;51.450;-0.240;2022-11-15T05:51:27;13.50;99.90
22838;DHT22;11585;51.450;-0.240;2022-11-15T05:53:56;13.60;99.90
22838;DHT22;11585;51.450;-0.240;2022-11-15T05:56:24;13.60;99.90
22838;DHT22;11585;51.450;-0.240;2022-11-15T05:58:50;13.60;99.90
22838;DHT22;11585;51.450;-0.240;2022-11-15T06:01:22;13.60;99.90
22838;DHT22;11585;51.450;-0.240;2022-11-15T06:03:49;13.30;99.90
22838;DHT22;11585;51.450;-0.240;2022-11-15T06:06:15;13.60;99.90
22838;DHT22;11585;51.450;-0.240;2022-11-15T06:08:43;13.60;99.90
22838;DHT22;11585;51.450;-0.240;2022-11-15T06:11:11;13.60;99.90
22838;DHT22;11585;51.450;-0.240;2022-11-15T06:13:37;13.60;99.90
22838;DHT22;11585;51.450;-0.240;2022-11-15T06:16:02;13.60;99.90
22838;DHT22;11585;51.450;-0.240;2022-11-15T06:18:31;13.70;99.90
22838;DHT22;11585;51.450;-0.240;2022-11-15T06:21:17;13.70;99.90
22838;DHT22;11585;51.450;-0.240;2022-11-15T06:23:42;13.70;99.90
22838;DHT22;11585;51.450;-0.240;2022-11-15T06:26:08;13.70;99.90
22838;DHT22;11585;51.450;-0.240;2022-11-15T06:28:33;13.70;99.90
22838;DHT22;11585;51.450;-0.240;2022-11-15T06:34:03;13.70;99.90
22838;DHT22;11585;51.450;-0.240;2022-11-15T06:36:29;13.70;99.90
22838;DHT22;11585;51.450;-0.240;2022-11-15T06:38:55;13.80;99.90
22838;DHT22;11585;51.450;-0.240;2022-11-15T06:41:46;13.70;99.90
22838;DHT22;11585;51.450;-0.240;2022-11-15T06:44:14;13.80;99.90
22838;DHT22;11585;51.450;-0.240;2022-11-15T06:46:41;13.70;99.90
22838;DHT22;11585;51.450;-0.240;2022-11-15T06:49:07;13.80;99.90
22838;DHT22;11585;51.450;-0.240;2022-11-15T06:51:42;13.80;99.90
22838;DHT22;11585;51.450;-0.240;2022-11-15T06:54:10;13.80;99.90
22838;DHT22;11585;51.450;-0.240;2022-11-15T06:56:35;13.80;99.90
22838;DHT22;11585;51.450;-0.240;2022-11-15T06:59:01;13.80;99.90
22838;DHT22;11585;51.450;-0.240;2022-11-15T07:01:45;13.80;99.90
22838;DHT22;11585;51.450;-0.240;2022-11-15T07:04:11;13.80;99.90
22838;DHT22;11585;51.450;-0.240;2022-11-15T07:06:36;13.80;99.90
22838;DHT22;11585;51.450;-0.240;2022-11-15T07:09:03;13.80;99.90
22838;DHT22;11585;51.450;-0.240;2022-11-15T07:18:12;13.80;99.90
22838;DHT22;11585;51.450;-0.240;2022-11-15T07:20:38;13.80;99.90
22838;DHT22;11585;51.450;-0.240;2022-11-15T07:23:08;13.80;99.90
22838;DHT22;11585;51.450;-0.240;2022-11-15T07:25:36;13.80;99.90
22838;DHT22;11585;51.450;-0.240;2022-11-15T07:28:02;13.80;99.90
22838;DHT22;11585;51.450;-0.240;2022-11-15T07:33:56;13.80;99.90
22838;DHT22;11585;51.450;-0.240;2022-11-15T07:36:22;13.80;99.90
22838;DHT22;11585;51.450;-0.240;2022-11-15T07:38:48;13.80;99.90
22838;DHT22;11585;51.450;-0.240;2022-11-15T07:41:36;13.80;99.90
22838;DHT22;11585;51.450;-0.240;2022-11-15T07:44:02;13.80;99.90
22838;DHT22;11585;51.450;-0.240;2022-11-15T07:46:27;13.80;99.90
22838;DHT22;11585;51.450;-0.240;2022-11-15T07:48:53;13.80;99.90
22838;DHT22;11585;51.450;-0.240;2022-11-15T07:51:19;13.80;99.90
22838;DHT22;11585;51.450;-0.240;2022-11-15T07:53:45;13.80;99.90
22838;DHT22;11585;51.450;-0.240;2022-11-15T07:56:12;13.80;99.90
22838;DHT22;11585;51.450;-0.240;2022-11-15T07:58:38;13.80;99.90
22838;DHT22;11585;51.450;-0.240;2022-11-15T08:01:07;13.80;99.90
22838;DHT22;11585;51.450;-0.240;2022-11-15T08:03:34;13.80;99.90
22838;DHT22;11585;51.450;-0.240;2022-11-15T08:06:00;13.80;99.90
22838;DHT22;11585;51.450;-0.240;2022-11-15T08:08:25;13.80;99.90
22838;DHT22;11585;51.450;-0.240;2022-11-15T08:10:51;13.80;99.90
22838;DHT22;11585;51.450;-0.240;2022-11-15T08:13:16;13.80;99.90
22838;DHT22;11585;51.450;-0.240;2022-11-15T08:15:42;13.80;99.90
22838;DHT22;11585;51.450;-0.240;2022-11-15T08:18:14;13.80;99.90
22838;DHT22;11585;51.450;-0.240;2022-11-15T08:20:41;13.80;99.90
22838;DHT22;11585;51.450;-0.240;2022-11-15T08:23:07;13.80;99.90
22838;DHT22;11585;51.450;-0.240;2022-11-15T08:25:34;13.80;99.90
22838;DHT22;11585;51.450;-0.240;2022-11-15T08:28:04;13.80;99.90
22838;DHT22;11585;51.450;-0.240;2022-11-15T08:30:38;13.80;99.90
22838;DHT22;11585;51.450;-0.240;2022-11-15T08:33:04;13.80;99.90
22838;DHT22;11585;51.450;-0.240;2022-11-15T08:35:30;13.80;99.90
22838;DHT22;11585;51.450;-0.240;2022-11-15T08:37:55;13.80;99.90
22838;DHT22;11585;51.450;-0.240;2022-11-15T08:40:21;13.80;99.90
22838;DHT22;11585;51.450;-0.240;2022-11-15T08:42:47;13.80;99.90
22838;DHT22;11585;51.450;-0.240;2022-11-15T08:45:14;13.80;99.90
22838;DHT22;11585;51.450;-0.240;2022-11-15T08:47:39;13.80;99.90
22838;DHT22;11585;51.450;-0.240;2022-11-15T08:50:06;13.80;99.90
22838;DHT22;11585;51.450;-0.240;2022-11-15T08:52:32;13.80;99.90
22838;DHT22;11585;51.450;-0.240;2022-11-15T08:54:57;13.80;99.90
22838;DHT22;11585;51.450;-0.240;2022-11-15T08:57:23;13.80;99.90
22838;DHT22;11585;51.450;-0.240;2022-11-15T08:59:49;13.80;99.90
22838;DHT22;11585;51.450;-0.240;2022-11-15T09:02:15;13.80;99.90
22838;DHT22;11585;51.450;-0.240;2022-11-15T09:04:42;13.80;99.90
22838;DHT22;11585;51.450;-0.240;2022-11-15T09:07:11;13.80;99.90
22838;DHT22;11585;51.450;-0.240;2022-11-15T09:09:37;13.80;99.90
22838;DHT22;11585;51.450;-0.240;2022-11-15T09:12:04;13.80;99.90
22838;DHT22;11585;51.450;-0.240;2022-11-15T09:14:30;13.80;99.90
22838;DHT22;11585;51.450;-0.240;2022-11-15T09:16:56;13.80;99.90
22838;DHT22;11585;51.450;-0.240;2022-11-15T09:19:22;13.80;99.90
22838;DHT22;11585;51.450;-0.240;2022-11-15T09:21:47;13.80;99.90
22838;DHT22;11585;51.450;-0.240;2022-11-15T09:24:13;13.70;99.90
22838;DHT22;11585;51.450;-0.240;2022-11-15T09:26:40;13.80;99.90
22838;DHT22;11585;51.450;-0.240;2022-11-15T09:29:06;13.80;99.90
22838;DHT22;11585;51.450;-0.240;2022-11-15T09:31:31;13.80;99.90
22838;DHT22;11585;51.450;-0.240;2022-11-15T09:33:57;13.80;99.90
22838;DHT22;11585;51.450;-0.240;2022-11-15T09:36:23;13.80;99.90
22838;DHT22;11585;51.450;-0.240;2022-11-15T09:38:49;13.80;99.90
22838;DHT22;11585;51.450;-0.240;2022-11-15T09:46:23;13.80;99.90
22838;DHT22;11585;51.450;-0.240;2022-11-15T09:51:29;13.80;99.90
22838;DHT22;11585;51.450;-0.240;2022-11-15T09:53:57;13.70;99.90
22838;DHT22;11585;51.450;-0.240;2022-11-15T09:56:30;13.80;99.90
22838;DHT22;11585;51.450;-0.240;2022-11-15T10:04:23;13.80;99.90
22838;DHT22;11585;51.450;-0.240;2022-11-15T10:07:04;13.70;99.90
22838;DHT22;11585;51.450;-0.240;2022-11-15T10:09:45;13.80;99.90
22838;DHT22;11585;51.450;-0.240;2022-11-15T10:12:13;13.80;99.90
22838;DHT22;11585;51.450;-0.240;2022-11-15T10:14:40;13.70;99.90
22838;DHT22;11585;51.450;-0.240;2022-11-15T10:17:29;13.80;99.90
22838;DHT22;11585;51.450;-0.240;2022-11-15T10:22:53;13.80;99.90
22838;DHT22;11585;51.450;-0.240;2022-11-15T10:25:28;13.80;99.90
22838;DHT22;11585;51.450;-0.240;2022-11-15T10:27:57;13.80;99.90
22838;DHT22;11585;51.450;-0.240;2022-11-15T10:30:32;13.80;99.90
22838;DHT22;11585;51.450;-0.240;2022-11-15T10:32:57;13.80;99.90
22838;DHT22;11585;51.450;-0.240;2022-11-15T10:35:26;13.80;99.90
22838;DHT22;11585;51.450;-0.240;2022-11-15T10:37:59;13.80;99.90
22838;DHT22;11585;51.450;-0.240;2022-11-15T10:40:29;13.70;99.90
22838;DHT22;11585;51.450;-0.240;2022-11-15T10:43:24;13.70;99.90
22838;DHT22;11585;51.450;-0.240;2022-11-15T10:45:51;13.80;99.90
22838;DHT22;11585;51.450;-0.240;2022-11-15T10:50:45;13.80;99.90
22838;DHT22;11585;51.450;-0.240;2022-11-15T10:53:26;13.80;99.90
22838;DHT22;11585;51.450;-0.240;2022-11-15T10:55:55;13.80;99.90
22838;DHT22;11585;51.450;-0.240;2022-11-15T10:58:39;13.80;99.90
22838;DHT22;11585;51.450;-0.240;2022-11-15T11:01:09;13.80;99.90
22838;DHT22;11585;51.450;-0.240;2022-11-15T11:03:37;13.80;99.90
22838;DHT22;11585;51.450;-0.240;2022-11-15T11:08:32;13.80;99.90
22838;DHT22;11585;51.450;-0.240;2022-11-15T11:11:01;13.80;99.90
22838;DHT22;11585;51.450;-0.240;2022-11-15T11:13:33;13.80;99.90
22838;DHT22;11585;51.450;-0.240;2022-11-15T11:16:17;13.80;99.90
22838;DHT22;11585;51.450;-0.240;2022-11-15T11:30:14;13.80;99.90
22838;DHT22;11585;51.450;-0.240;2022-11-15T11:37:55;13.80;99.90
22838;DHT22;11585;51.450;-0.240;2022-11-15T11:40:34;13.80;99.90
22838;DHT22;11585;51.450;-0.240;2022-11-15T11:46:41;13.80;99.90
22838;DHT22;11585;51.450;-0.240;2022-11-15T11:48:43;13.80;99.90
22838;DHT22;11585;51.450;-0.240;2022-11-15T11:51:28;13.80;99.90
22838;DHT22;11585;51.450;-0.240;2022-11-15T11:54:03;13.80;99.90
22838;DHT22;11585;51.450;-0.240;2022-11-15T11:56:33;13.80;99.90
22838;DHT22;11585;51.450;-0.240;2022-11-15T11:59:22;13.80;99.90
22838;DHT22;11585;51.450;-0.240;2022-11-15T12:01:48;13.80;99.90
22838;DHT22;11585;51.450;-0.240;2022-11-15T12:09:53;13.80;99.90
22838;DHT22;11585;51.450;-0.240;2022-11-15T12:15:19;13.80;99.90
22838;DHT22;11585;51.450;-0.240;2022-11-15T12:17:48;13.90;99.90
22838;DHT22;11585;51.450;-0.240;2022-11-15T12:33:49;13.90;99.90
22838;DHT22;11585;51.450;-0.240;2022-11-15T12:41:41;13.90;99.90
22838;DHT22;11585;51.450;-0.240;2022-11-15T12:59:56;13.90;99.90
22838;DHT22;11585;51.450;-0.240;2022-11-15T13:02:46;13.90;99.90
22838;DHT22;11585;51.450;-0.240;2022-11-15T13:10:31;13.90;99.90
22838;DHT22;11585;51.450;-0.240;2022-11-15T13:13:02;14.00;99.90
22838;DHT22;11585;51.450;-0.240;2022-11-15T13:15:53;14.00;99.90
22838;DHT22;11585;51.450;-0.240;2022-11-15T13:18:33;14.00;99.90
22838;DHT22;11585;51.450;-0.240;2022-11-15T13:24:21;14.00;99.90
22838;DHT22;11585;51.450;-0.240;2022-11-15T13:26:47;14.00;99.90
22838;DHT22;11585;51.450;-0.240;2022-11-15T13:29:32;14.00;99.90
22838;DHT22;11585;51.450;-0.240;2022-11-15T13:31:58;14.00;99.90
22838;DHT22;11585;51.450;-0.240;2022-11-15T13:34:30;14.00;99.90
22838;DHT22;11585;51.450;-0.240;2022-11-15T13:36:58;14.10;99.90
22838;DHT22;11585;51.450;-0.240;2022-11-15T13:39:31;14.10;99.90
22838;DHT22;11585;51.450;-0.240;2022-11-15T13:41:58;14.10;99.90
22838;DHT22;11585;51.450;-0.240;2022-11-15T13:44:32;14.20;99.90
22838;DHT22;11585;51.450;-0.240;2022-11-15T13:47:02;14.20;99.90
22838;DHT22;11585;51.450;-0.240;2022-11-15T13:49:33;14.20;99.90
22838;DHT22;11585;51.450;-0.240;2022-11-15T13:52:00;14.20;99.90
22838;DHT22;11585;51.450;-0.240;2022-11-15T13:54:32;14.20;99.90
22838;DHT22;11585;51.450;-0.240;2022-11-15T13:57:14;14.20;99.90
22838;DHT22;11585;51.450;-0.240;2022-11-15T14:00:05;14.20;99.90
22838;DHT22;11585;51.450;-0.240;2022-11-15T14:02:33;14.30;99.90
22838;DHT22;11585;51.450;-0.240;2022-11-15T14:05:15;14.30;99.90
22838;DHT22;11585;51.450;-0.240;2022-11-15T14:07:56;14.30;99.90
22838;DHT22;11585;51.450;-0.240;2022-11-15T14:10:29;14.30;99.90
22838;DHT22;11585;51.450;-0.240;2022-11-15T14:12:56;14.30;99.90
22838;DHT22;11585;51.450;-0.240;2022-11-15T14:15:32;14.30;99.90
22838;DHT22;11585;51.450;-0.240;2022-11-15T14:17:58;14.30;99.90
22838;DHT22;11585;51.450;-0.240;2022-11-15T14:22:52;14.30;99.90
22838;DHT22;11585;51.450;-0.240;2022-11-15T14:25:26;14.30;99.90
22838;DHT22;11585;51.450;-0.240;2022-11-15T14:30:48;14.40;99.90
22838;DHT22;11585;51.450;-0.240;2022-11-15T14:35:47;14.30;99.90
22838;DHT22;11585;51.450;-0.240;2022-11-15T14:38:15;12.90;99.90
22838;DHT22;11585;51.450;-0.240;2022-11-15T14:43:29;14.40;99.90
22838;DHT22;11585;51.450;-0.240;2022-11-15T14:45:55;14.40;99.90
22838;DHT22;11585;51.450;-0.240;2022-11-15T14:48:21;14.30;99.90
22838;DHT22;11585;51.450;-0.240;2022-11-15T15:00:54;14.30;99.90
22838;DHT22;11585;51.450;-0.240;2022-11-15T15:03:20;14.30;99.90
22838;DHT22;11585;51.450;-0.240;2022-11-15T15:05:45;14.30;99.90
22838;DHT22;11585;51.450;-0.240;2022-11-15T15:08:11;14.30;99.90
22838;DHT22;11585;51.450;-0.240;2022-11-15T15:10:41;14.30;99.90
22838;DHT22;11585;51.450;-0.240;2022-11-15T15:13:20;13.00;99.90
22838;DHT22;11585;51.450;-0.240;2022-11-15T15:15:47;14.30;99.90
22838;DHT22;11585;51.450;-0.240;2022-11-15T15:18:13;14.20;99.90
22838;DHT22;11585;51.450;-0.240;2022-11-15T15:24:01;14.30;99.90
22838;DHT22;11585;51.450;-0.240;2022-11-15T15:26:27;14.20;99.90
22838;DHT22;11585;51.450;-0.240;2022-11-15T15:28:53;14.20;99.90
22838;DHT22;11585;51.450;-0.240;2022-11-15T15:34:40;14.30;99.90
22838;DHT22;11585;51.450;-0.240;2022-11-15T15:37:26;14.20;99.90
22838;DHT22;11585;51.450;-0.240;2022-11-15T15:43:13;14.20;99.90
22838;DHT22;11585;51.450;-0.240;2022-11-15T15:45:40;14.20;99.90
22838;DHT22;11585;51.450;-0.240;2022-11-15T15:48:14;14.20;99.90
22838;DHT22;11585;51.450;-0.240;2022-11-15T15:54:02;14.20;99.90
22838;DHT22;11585;51.450;-0.240;2022-11-15T15:56:27;14.20;99.90
22838;DHT22;11585;51.450;-0.240;2022-11-15T15:58:53;14.10;99.90
22838;DHT22;11585;51.450;-0.240;2022-11-15T16:01:20;14.10;99.90
22838;DHT22;11585;51.450;-0.240;2022-11-15T16:03:46;14.10;99.90
22838;DHT22;11585;51.450;-0.240;2022-11-15T16:06:39;14.10;99.90
22838;DHT22;11585;51.450;-0.240;2022-11-15T16:09:14;14.10;99.90
22838;DHT22;11585;51.450;-0.240;2022-11-15T16:11:40;14.10;99.90
22838;DHT22;11585;51.450;-0.240;2022-11-15T16:14:07;13.80;99.90
22838;DHT22;11585;51.450;-0.240;2022-11-15T16:16:34;14.00;99.90
22838;DHT22;11585;51.450;-0.240;2022-11-15T16:18:59;14.00;99.90
22838;DHT22;11585;51.450;-0.240;2022-11-15T16:24:48;14.00;99.90
22838;DHT22;11585;51.450;-0.240;2022-11-15T16:27:23;14.00;99.90
22838;DHT22;11585;51.450;-0.240;2022-11-15T16:33:11;14.00;99.90
22838;DHT22;11585;51.450;-0.240;2022-11-15T16:35:36;14.00;99.90
22838;DHT22;11585;51.450;-0.240;2022-11-15T16:38:02;14.00;99.90
22838;DHT22;11585;51.450;-0.240;2022-11-15T16:43:50;14.00;99.90
22838;DHT22;11585;51.450;-0.240;2022-11-15T16:46:21;13.90;99.90
22838;DHT22;11585;51.450;-0.240;2022-11-15T16:48:48;13.90;99.90
22838;DHT22;11585;51.450;-0.240;2022-11-15T16:54:35;13.90;99.90
22838;DHT22;11585;51.450;-0.240;2022-11-15T17:00:24;13.90;99.90
22838;DHT22;11585;51.450;-0.240;2022-11-15T17:02:50;13.90;99.90
22838;DHT22;11585;51.450;-0.240;2022-11-15T17:05:19;13.90;99.90
22838;DHT22;11585;51.450;-0.240;2022-11-15T17:07:47;13.90;99.90
22838;DHT22;11585;51.450;-0.240;2022-11-15T17:13:41;13.80;99.90
22838;DHT22;11585;51.450;-0.240;2022-11-15T17:16:09;13.90;99.90
22838;DHT22;11585;51.450;-0.240;2022-11-15T17:18:36;13.90;99.90
22838;DHT22;11585;51.450;-0.240;2022-11-15T17:24:24;13.80;99.90
22838;DHT22;11585;51.450;-0.240;2022-11-15T17:26:50;13.80;99.90
22838;DHT22;11585;51.450;-0.240;2022-11-15T17:29:15;13.80;99.90
22838;DHT22;11585;51.450;-0.240;2022-11-15T17:31:41;13.80;99.90
22838;DHT22;11585;51.450;-0.240;2022-11-15T17:34:07;13.80;99.90
22838;DHT22;11585;51.450;-0.240;2022-11-15T17:36:34;13.80;99.90
22838;DHT22;11585;51.450;-0.240;2022-11-15T17:39:01;13.80;99.90
22838;DHT22;11585;51.450;-0.240;2022-11-15T17:41:27;13.90;99.90
22838;DHT22;11585;51.450;-0.240;2022-11-15T17:43:55;13.80;99.90
22838;DHT22;11585;51.450;-0.240;2022-11-15T17:46:22;13.80;99.90
22838;DHT22;11585;51.450;-0.240;2022-11-15T17:48:48;13.80;99.90
22838;DHT22;11585;51.450;-0.240;2022-11-15T17:54:17;13.80;99.90
22838;DHT22;11585;51.450;-0.240;2022-11-15T17:56:43;13.80;99.90
22838;DHT22;11585;51.450;-0.240;2022-11-15T17:59:09;13.80;99.90
22838;DHT22;11585;51.450;-0.240;2022-11-15T18:01:36;13.80;99.90
22838;DHT22;11585;51.450;-0.240;2022-11-15T18:04:04;13.80;99.90
22838;DHT22;11585;51.450;-0.240;2022-11-15T18:06:32;13.80;99.90
22838;DHT22;11585;51.450;-0.240;2022-11-15T18:08:59;13.80;99.90
22838;DHT22;11585;51.450;-0.240;2022-11-15T18:11:28;13.80;99.90
22838;DHT22;11585;51.450;-0.240;2022-11-15T18:13:59;13.80;99.90
22838;DHT22;11585;51.450;-0.240;2022-11-15T18:16:29;13.80;99.90
22838;DHT22;11585;51.450;-0.240;2022-11-15T18:18:55;13.80;99.90
22838;DHT22;11585;51.450;-0.240;2022-11-15T18:21:24;13.80;99.90
22838;DHT22;11585;51.450;-0.240;2022-11-15T18:23:55;13.70;99.90
22838;DHT22;11585;51.450;-0.240;2022-11-15T18:26:22;13.70;99.90
22838;DHT22;11585;51.450;-0.240;2022-11-15T18:28:51;13.70;99.90
22838;DHT22;11585;51.450;-0.240;2022-11-15T18:33:44;13.70;99.90
22838;DHT22;11585;51.450;-0.240;2022-11-15T18:36:12;13.70;99.90
22838;DHT22;11585;51.450;-0.240;2022-11-15T18:38:38;12.50;99.90
22838;DHT22;11585;51.450;-0.240;2022-11-15T18:41:16;13.70;99.90
22838;DHT22;11585;51.450;-0.240;2022-11-15T18:43:43;13.70;99.90
22838;DHT22;11585;51.450;-0.240;2022-11-15T18:46:11;13.70;99.90
22838;DHT22;11585;51.450;-0.240;2022-11-15T18:48:38;13.60;99.90
22838;DHT22;11585;51.450;-0.240;2022-11-15T18:51:06;13.60;99.90
22838;DHT22;11585;51.450;-0.240;2022-11-15T18:53:33;13.40;99.90
22838;DHT22;11585;51.450;-0.240;2022-11-15T18:56:07;13.60;99.90
22838;DHT22;11585;51.450;-0.240;2022-11-15T18:58:36;13.60;99.90
22838;DHT22;11585;51.450;-0.240;2022-11-15T19:01:08;13.50;99.90
22838;DHT22;11585;51.450;-0.240;2022-11-15T19:03:35;13.60;99.90
22838;DHT22;11585;51.450;-0.240;2022-11-15T19:06:06;13.60;99.90
22838;DHT22;11585;51.450;-0.240;2022-11-15T19:08:34;13.50;99.90
22838;DHT22;11585;51.450;-0.240;2022-11-15T19:13:35;13.50;99.90
22838;DHT22;11585;51.450;-0.240;2022-11-15T19:16:02;13.50;99.90
22838;DHT22;11585;51.450;-0.240;2022-11-15T19:18:29;13.50;99.90
22838;DHT22;11585;51.450;-0.240;2022-11-15T19:20:55;13.50;99.90
22838;DHT22;11585;51.450;-0.240;2022-11-15T19:23:24;13.30;99.90
22838;DHT22;11585;51.450;-0.240;2022-11-15T19:25:56;13.50;99.90
22838;DHT22;11585;51.450;-0.240;2022-11-15T19:28:24;13.40;99.90
22838;DHT22;11585;51.450;-0.240;2022-11-15T19:30:50;12.60;99.90
22838;DHT22;11585;51.450;-0.240;2022-11-15T19:33:16;13.40;99.90
22838;DHT22;11585;51.450;-0.240;2022-11-15T19:35:42;13.40;99.90
22838;DHT22;11585;51.450;-0.240;2022-11-15T19:38:08;13.40;99.90
22838;DHT22;11585;51.450;-0.240;2022-11-15T19:40:33;13.40;99.90
22838;DHT22;11585;51.450;-0.240;2022-11-15T19:42:59;13.30;99.90
22838;DHT22;11585;51.450;-0.240;2022-11-15T19:45:25;13.30;99.90
22838;DHT22;11585;51.450;-0.240;2022-11-15T19:47:50;13.40;99.90
22838;DHT22;11585;51.450;-0.240;2022-11-15T19:50:16;13.30;99.90
22838;DHT22;11585;51.450;-0.240;2022-11-15T19:52:42;13.30;99.90
22838;DHT22;11585;51.450;-0.240;2022-11-15T19:55:08;13.30;99.90
22838;DHT22;11585;51.450;-0.240;2022-11-15T19:57:34;13.30;99.90
22838;DHT22;11585;51.450;-0.240;2022-11-15T19:59:59;13.30;99.90
22838;DHT22;11585;51.450;-0.240;2022-11-15T20:02:25;13.20;99.90
22838;DHT22;11585;51.450;-0.240;2022-11-15T20:04:50;13.20;99.90
22838;DHT22;11585;51.450;-0.240;2022-11-15T20:07:16;13.20;99.90